Latest Weather Observations for Mangrove Mountain

IDN60801

Issued at 7:42 pm EDT Tuesday 10 December 2019 (issued every 10 minutes, with the page automatically refreshed every 10 minutes)

About weather observations | Map of weather stations | Latest weather observations for NSW | Other Formats
Station Details ID: 061375 Name: MANGROVE MOUNTAIN AWS Lat: -33.29 Lon: 151.21 Height: 305.0 m
Data from the previous 72 hours. | See also: Recent months at Mangrove Mountain
Date/Time
EDT
Temp
°C
App
Temp
°C
Dew
Point
°C
Rel
Hum
%
Delta-T
°C
Wind Press
QNH
hPa
Press
MSL
hPa
Rain since
9am
mm
Dir  Spd
km/h
Gust
km/h
Spd
kts
Gust
kts
10/07:30pm 19.5 18.5 17.6 89 1.2 SSE 19 32 10 17 - - 0.0
10/07:00pm 20.1 20.6 18.4 90 1.1 SSE 13 22 7 12 - - 0.0
10/06:30pm 20.4 19.8 18.5 89 1.2 SE 19 35 10 19 - - 0.0
10/06:00pm 21.0 20.8 18.6 86 1.5 SE 17 30 9 16 - - 0.0
10/05:30pm 21.8 21.0 18.0 79 2.4 SE 19 28 10 15 - - 0.0
10/05:00pm 26.4 25.5 15.8 52 6.6 SSE 15 20 8 11 - - 0.0
10/04:30pm 31.2 31.3 14.4 36 10.4 E 7 13 4 7 - - 0.0
10/04:00pm 32.9 31.4 12.0 28 12.5 ENE 11 19 6 10 - - 0.0
10/03:30pm 34.2 33.6 14.7 31 12.2 E 11 20 6 11 - - 0.0
10/03:00pm 35.0 34.1 12.6 26 13.6 E 9 15 5 8 - - 0.0
10/02:30pm 37.4 36.5 9.1 18 16.5 SW 4 19 2 10 - - 0.0
10/02:00pm 38.5 35.7 -3.4 7 20.3 WNW 2 6 1 3 - - 0.0
10/01:30pm 38.3 35.7 -1.7 8 19.9 W 2 6 1 3 - - 0.0
10/01:00pm 38.0 34.6 -0.3 9 19.4 NW 7 13 4 7 - - 0.0
10/12:30pm 37.1 33.7 1.8 11 18.4 NW 9 17 5 9 - - 0.0
10/12:00pm 35.9 34.1 9.4 20 15.4 NW 9 15 5 8 - - 0.0
10/11:30am 35.1 33.3 10.9 23 14.4 NW 11 17 6 9 - - 0.0
10/11:00am 33.6 32.7 13.6 29 12.3 NW 11 19 6 10 - - 0.0
10/10:30am 31.6 31.6 15.1 36 10.3 NW 9 17 5 9 - - 0.0
10/10:00am 30.3 30.6 16.0 42 9.0 NW 9 17 5 9 - - 0.0
10/09:30am 27.8 27.6 15.8 48 7.5 NW 11 19 6 10 - - 0.0
10/09:00am 26.2 26.6 17.3 58 5.6 NW 11 19 6 10 - - 0.0
10/08:30am 24.3 26.1 18.7 71 3.6 NW 7 15 4 8 - - 0.0
10/08:00am 21.9 23.6 19.3 85 1.7 NW 9 17 5 9 - - 0.0
10/07:30am 20.5 22.8 19.8 96 0.5 NW 7 11 4 6 - - 0.0
10/07:00am 19.2 21.4 19.2 100 0.0 WNW 6 9 3 5 - - 0.0
10/06:30am 18.0 19.5 18.0 100 0.0 NW 7 13 4 7 - - 0.0
10/06:00am 17.1 18.8 17.1 100 0.0 NW 4 7 2 4 - - 0.0
10/05:30am 17.1 19.5 17.1 100 0.0 CALM 0 0 0 0 - - 0.0
10/05:00am 16.6 18.8 16.6 100 0.0 CALM 0 0 0 0 - - 0.0
10/04:30am 16.2 18.1 15.7 97 0.3 CALM 0 0 0 0 - - 0.0
10/04:00am 16.3 18.2 15.7 96 0.4 CALM 0 0 0 0 - - 0.0
10/03:30am 16.5 18.5 16.0 97 0.3 CALM 0 0 0 0 - - 0.0
10/03:00am 16.8 18.9 16.3 97 0.3 CALM 0 0 0 0 - - 0.0
10/02:30am 16.9 19.1 16.6 98 0.2 CALM 0 0 0 0 - - 0.0
10/02:00am 16.9 19.1 16.6 98 0.2 CALM 0 0 0 0 - - 0.0
10/01:30am 16.6 18.6 16.0 96 0.4 CALM 0 0 0 0 - - 0.0
10/01:00am 17.0 19.2 16.4 96 0.4 CALM 0 0 0 0 - - 0.0
10/12:30am 17.2 19.5 16.7 97 0.3 CALM 0 0 0 0 - - 0.0
10/12:00am 17.3 19.3 17.0 98 0.2 ENE 2 6 1 3 - - 0.0
 
Date/Time
EDT
Temp
°C
App
Temp
°C
Dew
Point
°C
Rel
Hum
%
Delta-T
°C
Wind Press
QNH
hPa
Press
MSL
hPa
Rain since
9am
mm
Dir  Spd
km/h
Gust
km/h
Spd
kts
Gust
kts
09/11:30pm 17.0 18.5 16.7 98 0.2 ENE 4 6 2 3 - - 0.0
09/11:00pm 17.3 19.4 16.3 94 0.6 CALM 0 4 0 2 - - 0.0
09/10:30pm 17.3 18.7 16.3 94 0.6 ESE 4 6 2 3 - - 0.0
09/10:00pm 17.8 19.2 16.5 92 0.8 SE 4 6 2 3 - - 0.0
09/09:30pm 18.3 20.5 16.6 90 1.0 CALM 0 2 0 1 - - 0.0
09/09:00pm 18.8 21.2 17.1 90 1.0 CALM 0 0 0 0 - - 0.0
09/08:30pm 19.3 21.5 17.4 89 1.2 ENE 2 7 1 4 - - 0.0
09/08:00pm 19.7 21.0 17.5 87 1.4 E 7 17 4 9 - - 0.0
09/07:30pm 20.1 20.1 17.3 84 1.7 E 13 22 7 12 - - 0.0
09/07:00pm 20.7 20.7 17.1 80 2.2 E 13 22 7 12 - - 0.0
09/06:30pm 21.3 20.5 17.1 77 2.6 ENE 17 28 9 15 - - 0.0
09/06:00pm 21.9 20.7 17.1 74 3.0 ENE 19 30 10 16 - - 0.0
09/05:30pm 22.3 21.4 16.8 71 3.4 ENE 17 28 9 15 - - 0.0
09/05:00pm 23.3 22.0 16.8 67 4.0 E 19 30 10 16 - - 0.0
09/04:30pm 24.3 23.2 16.3 61 4.9 E 17 28 9 15 - - 0.0
09/04:00pm 26.0 25.0 16.5 55 5.9 E 17 22 9 12 - - 0.0
09/03:30pm 26.5 25.4 16.4 53 6.3 E 17 28 9 15 - - 0.0
09/03:00pm 27.2 26.4 17.1 54 6.4 E 17 24 9 13 - - 0.0
09/02:30pm 26.8 26.3 17.0 55 6.2 E 15 26 8 14 - - 0.0
09/02:00pm 27.3 27.4 16.6 52 6.7 E 11 22 6 12 - - 0.0
09/01:30pm 27.2 27.2 15.2 47 7.4 NE 9 15 5 8 - - 0.0
09/01:00pm 27.4 27.7 16.1 50 7.0 ENE 9 17 5 9 - - 0.0
09/12:30pm 26.8 27.0 15.8 51 6.8 E 9 20 5 11 - - 0.0
09/12:00pm 25.6 25.5 15.0 52 6.5 ENE 9 17 5 9 - - 0.0
09/11:30am 25.3 25.2 15.9 56 5.8 ENE 11 17 6 9 - - 0.0
09/11:00am 24.3 25.3 16.8 63 4.7 ENE 7 17 4 9 - - 0.0
09/10:30am 22.2 22.9 16.2 69 3.7 NNE 7 15 4 8 - - 0.0
09/10:00am 22.1 22.6 16.6 71 3.4 NE 9 17 5 9 - - 0.0
09/09:30am 20.6 21.5 16.6 78 2.5 NE 7 11 4 6 - - 0.0
09/09:00am 20.1 20.3 16.7 81 2.1 NE 11 17 6 9 - - 0.0
09/08:30am 19.5 20.4 16.5 83 1.8 NE 7 13 4 7 - - 0.0
09/08:00am 19.3 20.4 16.5 84 1.7 ENE 6 9 3 5 - - 0.0
09/07:30am 18.9 19.8 16.7 87 1.3 ENE 7 11 4 6 - - 0.0
09/07:00am 18.7 20.1 16.5 87 1.3 E 4 9 2 5 - - 0.0
09/06:30am 18.5 19.6 16.5 88 1.2 ENE 6 7 3 4 - - 0.0
09/06:00am 18.3 19.7 16.5 89 1.1 ENE 4 9 2 5 - - 0.0
09/05:30am 18.3 19.7 16.5 89 1.1 E 4 7 2 4 - - 0.0
09/05:00am 18.2 19.2 16.4 89 1.1 ENE 6 9 3 5 - - 0.0
09/04:30am 18.1 19.1 16.3 89 1.1 ENE 6 9 3 5 - - 0.0
09/04:00am 18.2 19.1 16.2 88 1.2 E 6 9 3 5 - - 0.0
09/03:30am 18.1 19.4 16.1 88 1.2 ENE 4 7 2 4 - - 0.0
09/03:00am 18.2 19.4 15.8 86 1.4 E 4 7 2 4 - - 0.0
09/02:30am 18.3 19.5 15.9 86 1.4 ESE 4 7 2 4 - - 0.0
09/02:00am 18.3 19.0 15.7 85 1.6 E 6 9 3 5 - - 0.0
09/01:30am 18.3 19.0 15.7 85 1.6 E 6 9 3 5 - - 0.0
09/01:00am 18.2 18.8 15.8 86 1.4 ENE 7 15 4 8 - - 0.0
09/12:30am 18.1 19.0 16.1 88 1.2 E 6 15 3 8 - - 0.0
09/12:00am 18.0 18.9 16.2 89 1.1 E 6 13 3 7 - - 0.0
 
Date/Time
EDT
Temp
°C
App
Temp
°C
Dew
Point
°C
Rel
Hum
%
Delta-T
°C
Wind Press
QNH
hPa
Press
MSL
hPa
Rain since
9am
mm
Dir  Spd
km/h
Gust
km/h
Spd
kts
Gust
kts
08/11:30pm 18.0 18.9 16.2 89 1.1 E 6 13 3 7 - - 0.0
08/11:00pm 17.8 18.4 15.8 88 1.2 E 7 13 4 7 - - 0.0
08/10:30pm 17.8 18.4 15.8 88 1.2 E 7 15 4 8 - - 0.0
08/10:00pm 17.9 18.0 15.5 86 1.4 E 9 15 5 8 - - 0.0
08/09:30pm 18.1 17.4 15.5 85 1.5 E 13 24 7 13 - - 0.0
08/09:00pm 18.3 18.4 15.4 83 1.7 E 9 20 5 11 - - 0.0
08/08:30pm 18.5 17.4 15.2 81 2.0 E 15 26 8 14 - - 0.0
08/08:00pm 18.7 17.9 15.0 79 2.2 E 13 22 7 12 - - 0.0
08/07:30pm 19.2 18.3 14.9 76 2.5 E 13 26 7 14 - - 0.0
08/07:00pm 19.5 18.2 14.7 74 2.8 E 15 24 8 13 - - 0.0
08/06:30pm 19.7 18.4 14.7 73 3.0 E 15 28 8 15 - - 0.0
08/06:00pm 20.2 19.3 14.8 71 3.2 E 13 24 7 13 - - 0.0
08/05:30pm 20.7 18.9 14.4 67 3.7 E 17 30 9 16 - - 0.0
08/05:00pm 21.5 19.3 14.4 64 4.2 ENE 19 30 10 16 - - 0.0
08/04:30pm 22.3 20.6 14.7 62 4.5 E 17 28 9 15 - - 0.0
08/04:00pm 22.5 19.4 14.6 61 4.7 E 24 37 13 20 - - 0.0
08/03:30pm 23.1 20.3 14.4 58 5.2 E 22 33 12 18 - - 0.0
08/03:00pm 23.5 21.0 14.2 56 5.5 E 20 32 11 17 - - 0.0
08/02:30pm 23.8 21.3 13.6 52 6.0 E 19 32 10 17 - - 0.0
08/02:00pm 24.1 21.7 13.9 53 6.1 E 19 28 10 15 - - 0.0
08/01:30pm 24.4 21.8 13.9 52 6.3 E 20 33 11 18 - - 0.0
08/01:00pm 23.6 21.5 13.5 53 6.0 E 17 32 9 17 - - 0.0
08/12:30pm 24.4 22.3 13.6 51 6.4 E 17 26 9 14 - - 0.0
08/12:00pm 23.6 21.5 13.5 53 6.0 E 17 30 9 16 - - 0.0
08/11:30am 23.6 21.8 13.2 52 6.1 E 15 24 8 13 - - 0.0
08/11:00am 23.8 22.3 13.1 51 6.3 E 13 22 7 12 - - 0.0
08/10:30am 22.3 20.2 12.3 53 5.7 E 15 22 8 12 - - 0.0
08/10:00am 22.1 20.4 13.5 58 5.0 E 15 20 8 11 - - 0.0
08/09:30am 22.0 21.2 14.1 61 4.7 E 11 17 6 9 - - 0.0
08/09:00am 21.7 21.0 15.3 67 3.9 E 13 24 7 13 - - 0.0
08/08:30am 19.9 19.3 14.5 71 3.2 E 11 17 6 9 - - 0.0
08/08:00am 19.3 19.5 15.8 80 2.1 E 9 17 5 9 - - 0.0
08/07:30am 18.7 19.3 15.8 83 1.7 E 7 13 4 7 - - 0.0
08/07:00am 17.8 18.3 15.6 87 1.3 E 7 9 4 5 - - 0.0
08/06:30am 17.4 17.9 15.6 89 1.1 ENE 7 11 4 6 - - 0.0
08/06:00am 17.1 17.8 15.6 91 0.9 E 6 13 3 7 - - 0.0
08/05:30am 16.5 17.6 15.5 94 0.6 SE 4 7 2 4 - - 0.0
08/05:00am 16.4 16.9 15.1 92 0.8 ESE 6 11 3 6 - - 0.0
08/04:30am 16.7 17.1 15.2 91 0.9 E 7 13 4 7 - - 0.0
08/04:00am 16.8 16.8 15.3 91 0.9 E 9 15 5 8 - - 0.0
08/03:30am 17.1 17.8 15.6 91 0.9 ESE 6 11 3 6 - - 0.0
08/03:00am 17.2 17.9 16.1 93 0.7 ESE 7 13 4 7 - - 0.0
08/02:30am 17.4 18.0 16.9 97 0.3 ESE 9 17 5 9 - - 0.0
08/02:00am 17.4 19.2 17.4 100 0.0 SSE 4 6 2 3 - - 0.0
08/01:30am 17.3 19.4 17.3 100 0.0 SE 2 4 1 2 - - 0.0
08/01:00am 17.2 18.9 17.2 100 0.0 SSE 4 6 2 3 - - 0.0
08/12:30am 16.6 18.1 16.6 100 0.0 S 4 7 2 4 - - 0.0
08/12:00am 16.0 16.9 16.0 100 0.0 SSE 6 7 3 4 - - 0.0
 
Date/Time
EDT
Temp
°C
App
Temp
°C
Dew
Point
°C
Rel
Hum
%
Delta-T
°C
Wind Press
QNH
hPa
Press
MSL
hPa
Rain since
9am
mm
Dir  Spd
km/h
Gust
km/h
Spd
kts
Gust
kts
07/11:30pm 15.4 16.7 14.1 92 0.7 CALM 0 0 0 0 - - 0.0
07/11:00pm 16.4 17.5 15.6 95 0.5 SE 4 6 2 3 - - 0.0
07/10:30pm 17.0 18.0 16.4 96 0.4 SSE 6 7 3 4 - - 0.0
07/10:00pm 17.3 18.4 17.0 98 0.2 SSE 7 9 4 5 - - 0.0
07/09:30pm 17.0 17.9 16.5 97 0.3 SSE 7 11 4 6 - - 0.0
07/09:00pm 16.8 17.6 14.8 88 1.2 SE 4 6 2 3 - - 0.0
07/08:30pm 17.5 18.0 15.1 86 1.4 SE 6 7 3 4 - - 0.0
07/08:00pm 17.9 17.6 12.8 72 2.9 SE 6 7 3 4 - - 0.0

Other formats

Comma delimited format used in spreadsheet applications
http://www.bom.gov.au/fwo/IDN60801/IDN60801.95774.axf

JavaScript Object Notation format (JSON) in row-major order
http://www.bom.gov.au/fwo/IDN60801/IDN60801.95774.json

Data quality

Most of these data are generated automatically and are frequently updated. Quality checks on data are not normally performed. It is possible for incorrect values to appear. Refer to information at About Latest Weather Observations and please check the disclaimer before using these data.